createdAt,value
2023-09-11T00:01:04.750Z,3.20
2023-09-11T00:03:35.397Z,5.45
2023-09-11T00:06:08.192Z,5.43
2023-09-11T00:08:37.235Z,4.43
2023-09-11T00:11:06.160Z,3.95
2023-09-11T00:13:34.985Z,4.13
2023-09-11T00:16:03.433Z,4.68
2023-09-11T00:18:31.840Z,6.22
2023-09-11T00:21:01.636Z,5.38
2023-09-11T00:23:30.138Z,5.22
2023-09-11T00:25:58.645Z,4.55
2023-09-11T00:28:27.136Z,3.22
2023-09-11T00:31:01.224Z,5.22
2023-09-11T00:33:29.905Z,4.22
2023-09-11T00:35:58.437Z,4.20
2023-09-11T00:38:28.575Z,3.45
2023-09-11T00:40:57.069Z,4.60
2023-09-11T00:43:25.427Z,5.70
2023-09-11T00:45:53.852Z,3.72
2023-09-11T00:48:22.558Z,4.22
2023-09-11T00:50:51.746Z,4.40
2023-09-11T00:53:21.630Z,4.47
2023-09-11T00:55:51.432Z,4.13
2023-09-11T00:58:20.206Z,3.47
2023-09-11T01:00:49.530Z,3.80
2023-09-11T01:03:18.744Z,6.32
2023-09-11T01:05:47.551Z,4.15
2023-09-11T01:08:16.088Z,3.57
2023-09-11T01:10:44.738Z,3.47
2023-09-11T01:13:14.930Z,4.17
2023-09-11T01:15:53.577Z,4.30
2023-09-11T01:18:30.371Z,3.40
2023-09-11T01:21:31.273Z,3.83
2023-09-11T01:24:46.276Z,3.33
2023-09-11T01:27:54.380Z,5.90
2023-09-11T01:30:24.652Z,3.27
2023-09-11T01:32:53.955Z,4.17
2023-09-11T01:35:22.846Z,4.63
2023-09-11T01:37:51.672Z,3.60
2023-09-11T01:40:22.259Z,4.60
2023-09-11T01:42:57.726Z,4.57
2023-09-11T01:45:28.758Z,5.10
2023-09-11T01:47:58.321Z,6.18
2023-09-11T01:50:27.881Z,4.53
2023-09-11T01:52:56.519Z,6.47
2023-09-11T01:55:25.073Z,3.42
2023-09-11T01:57:54.108Z,3.53
2023-09-11T02:00:22.656Z,4.60
2023-09-11T02:02:56.595Z,3.50
2023-09-11T02:05:25.254Z,3.90
2023-09-11T02:07:53.853Z,5.10
2023-09-11T02:10:22.225Z,4.30
2023-09-11T02:12:50.667Z,3.90
2023-09-11T02:15:19.038Z,4.43
2023-09-11T02:17:47.439Z,3.37
2023-09-11T02:20:17.495Z,3.70
2023-09-11T02:22:45.880Z,4.53
2023-09-11T02:25:14.290Z,4.05
2023-09-11T02:27:42.719Z,3.80
2023-09-11T02:30:11.877Z,4.40
2023-09-11T02:32:40.335Z,5.70
2023-09-11T02:35:10.006Z,3.87
2023-09-11T02:37:41.214Z,3.38
2023-09-11T02:40:12.930Z,4.27
2023-09-11T02:42:41.308Z,4.57
2023-09-11T02:45:11.140Z,3.37
2023-09-11T02:47:40.309Z,3.30
2023-09-11T02:50:10.148Z,3.40
2023-09-11T02:52:39.872Z,8.47
2023-09-11T02:55:12.441Z,4.23
2023-09-11T02:57:40.907Z,4.30
2023-09-11T03:00:11.535Z,3.97
2023-09-11T03:02:40.670Z,4.63
2023-09-11T03:05:10.145Z,3.53
2023-09-11T03:07:39.994Z,3.43
2023-09-11T03:10:09.084Z,3.87
2023-09-11T03:12:37.557Z,3.90
2023-09-11T03:15:08.712Z,3.80
2023-09-11T03:17:37.174Z,3.97
2023-09-11T03:20:08.506Z,3.30
2023-09-11T03:22:37.301Z,4.57
2023-09-11T03:25:07.988Z,3.50
2023-09-11T03:27:36.386Z,3.77
2023-09-11T03:30:05.665Z,4.87
2023-09-11T03:32:34.479Z,4.97
2023-09-11T03:35:03.516Z,3.47
2023-09-11T03:37:32.027Z,4.83
2023-09-11T03:40:00.400Z,3.77
2023-09-11T03:42:31.101Z,3.87
2023-09-11T03:44:59.504Z,4.27
2023-09-11T03:47:28.102Z,5.27
2023-09-11T03:49:56.585Z,4.13
2023-09-11T03:52:24.998Z,4.10
2023-09-11T03:54:53.383Z,4.23
2023-09-11T03:57:21.925Z,3.40
2023-09-11T03:59:51.836Z,3.60
2023-09-11T04:02:20.280Z,4.60
2023-09-11T04:04:48.644Z,4.90
2023-09-11T04:07:17.026Z,4.83
2023-09-11T04:09:45.483Z,4.73
2023-09-11T04:12:19.070Z,4.20
2023-09-11T04:14:48.083Z,2.97
2023-09-11T04:17:17.950Z,3.33
2023-09-11T04:19:46.719Z,4.20
2023-09-11T04:22:15.444Z,3.20
2023-09-11T04:24:43.820Z,5.10
2023-09-11T04:27:12.565Z,3.97
2023-09-11T04:29:41.870Z,3.83
2023-09-11T04:32:13.206Z,3.80
2023-09-11T04:34:43.363Z,6.43
2023-09-11T04:37:11.937Z,3.40
2023-09-11T04:39:40.617Z,3.30
2023-09-11T04:42:09.129Z,5.17
2023-09-11T04:44:39.071Z,5.60
2023-09-11T04:47:07.696Z,3.23
2023-09-11T04:49:36.837Z,3.10
2023-09-11T04:52:06.980Z,2.80
2023-09-11T04:54:35.410Z,4.00
2023-09-11T04:57:03.922Z,3.70
2023-09-11T04:59:32.392Z,5.30
2023-09-11T05:02:00.913Z,4.10
2023-09-11T05:04:29.357Z,6.50
2023-09-11T05:06:57.864Z,7.53
2023-09-11T05:09:27.919Z,3.90
2023-09-11T05:11:56.569Z,3.17
2023-09-11T05:14:25.125Z,3.70
2023-09-11T05:16:53.644Z,5.20
2023-09-11T05:19:23.378Z,3.53
2023-09-11T05:21:52.381Z,3.97
2023-09-11T05:24:20.792Z,3.73
2023-09-11T05:26:50.621Z,4.10
2023-09-11T05:29:19.241Z,4.83
2023-09-11T05:31:47.799Z,3.30
2023-09-11T05:34:16.479Z,4.67
2023-09-11T05:36:44.917Z,3.70
2023-09-11T05:39:13.358Z,3.67
2023-09-11T05:41:42.066Z,3.73
2023-09-11T05:44:12.105Z,3.20
2023-09-11T05:46:40.634Z,4.30
2023-09-11T05:49:09.205Z,4.87
2023-09-11T05:51:37.654Z,5.40
2023-09-11T05:54:06.566Z,4.40
2023-09-11T05:56:35.061Z,3.33
2023-09-11T05:59:04.103Z,3.10
2023-09-11T06:01:33.837Z,4.23
2023-09-11T06:04:02.622Z,4.33
2023-09-11T06:06:31.455Z,3.90
2023-09-11T06:09:01.005Z,3.30
2023-09-11T06:11:29.750Z,5.27
2023-09-11T06:13:58.701Z,4.23
2023-09-11T06:16:27.164Z,4.80
2023-09-11T06:18:57.299Z,3.80
2023-09-11T06:21:26.313Z,4.83
2023-09-11T06:23:55.152Z,4.17
2023-09-11T06:26:23.646Z,4.50
2023-09-11T06:28:52.446Z,3.67
2023-09-11T06:31:21.809Z,4.90
2023-09-11T06:33:51.503Z,3.37
2023-09-11T06:36:21.412Z,4.03
2023-09-11T06:38:49.844Z,4.97
2023-09-11T06:41:18.516Z,5.67
2023-09-11T06:43:47.245Z,5.30
2023-09-11T06:46:15.918Z,4.17
2023-09-11T06:48:44.748Z,3.27
2023-09-11T06:51:13.752Z,6.50
2023-09-11T06:53:43.659Z,3.47
2023-09-11T06:56:12.210Z,4.43
2023-09-11T06:58:43.559Z,4.00
2023-09-11T07:01:12.330Z,5.97
2023-09-11T07:03:40.889Z,4.77
2023-09-11T07:06:09.879Z,4.90
2023-09-11T07:08:38.479Z,6.97
2023-09-11T07:11:08.573Z,5.70
2023-09-11T07:13:36.937Z,5.03
2023-09-11T07:16:06.272Z,6.20
2023-09-11T07:18:34.785Z,6.57
2023-09-11T07:21:03.270Z,7.83
2023-09-11T07:23:31.975Z,7.40
2023-09-11T07:26:00.540Z,11.03
2023-09-11T07:28:30.415Z,7.50
2023-09-11T07:30:59.859Z,6.07
2023-09-11T07:33:29.572Z,5.85
2023-09-11T07:35:58.151Z,6.47
2023-09-11T07:38:26.751Z,6.90
2023-09-11T07:40:55.216Z,6.33
2023-09-11T07:43:24.472Z,5.03
2023-09-11T07:45:54.270Z,4.67
2023-09-11T07:48:22.776Z,5.43
2023-09-11T07:50:57.828Z,6.00
2023-09-11T07:53:26.511Z,4.10
2023-09-11T07:55:54.878Z,3.33
2023-09-11T07:58:23.796Z,3.42
2023-09-11T08:00:54.212Z,5.28
2023-09-11T08:03:24.048Z,4.18
2023-09-11T08:05:52.579Z,3.97
2023-09-11T08:08:21.029Z,3.38
2023-09-11T08:10:49.790Z,3.72
2023-09-11T08:13:18.224Z,3.30
2023-09-11T08:15:47.108Z,6.95
2023-09-11T08:18:17.013Z,6.22
2023-09-11T08:20:47.908Z,5.72
2023-09-11T08:23:16.564Z,4.80
2023-09-11T08:25:44.931Z,6.15
2023-09-11T08:28:13.434Z,4.45
2023-09-11T08:30:42.475Z,7.95
2023-09-11T08:33:11.236Z,6.00
2023-09-11T08:35:41.558Z,7.90
2023-09-11T08:38:09.978Z,4.63
2023-09-11T08:40:38.618Z,4.38
2023-09-11T08:43:07.372Z,5.32
2023-09-11T08:45:36.021Z,7.10
2023-09-11T08:48:10.767Z,5.70
2023-09-11T08:50:45.638Z,3.80
2023-09-11T08:53:19.166Z,6.10
2023-09-11T08:55:49.178Z,4.43
2023-09-11T08:58:22.351Z,5.15
2023-09-11T09:00:51.335Z,3.25
2023-09-11T09:03:22.006Z,3.22
2023-09-11T09:05:52.052Z,5.28
2023-09-11T09:08:22.380Z,3.50
2023-09-11T09:10:51.129Z,2.78
2023-09-11T09:13:19.520Z,2.42
2023-09-11T09:15:48.004Z,3.00
2023-09-11T09:18:16.482Z,3.25
2023-09-11T09:20:45.006Z,4.47
2023-09-11T09:23:15.406Z,5.07
2023-09-11T09:25:44.154Z,3.55
2023-09-11T09:28:31.076Z,2.50
2023-09-11T09:31:00.474Z,2.70
2023-09-11T09:33:29.877Z,2.75
2023-09-11T09:35:58.463Z,2.60
2023-09-11T09:38:29.216Z,2.22
2023-09-11T09:40:58.417Z,2.15
2023-09-11T09:43:26.814Z,3.60
2023-09-11T09:45:55.253Z,2.95
2023-09-11T09:48:23.789Z,2.65
2023-09-11T09:50:58.281Z,3.05
2023-09-11T09:53:32.178Z,4.38
2023-09-11T09:56:04.326Z,2.60
2023-09-11T09:58:37.290Z,2.67
2023-09-11T10:01:08.096Z,4.00
2023-09-11T10:03:42.932Z,3.95
2023-09-11T10:06:16.818Z,3.47
2023-09-11T10:08:47.843Z,2.85
2023-09-11T10:11:29.561Z,3.15
2023-09-11T10:14:00.207Z,3.78
2023-09-11T10:16:31.398Z,2.47
2023-09-11T10:19:01.572Z,3.22
2023-09-11T10:21:31.578Z,4.20
2023-09-11T10:24:01.418Z,3.70
2023-09-11T10:26:38.784Z,5.05
2023-09-11T10:29:13.189Z,2.75
2023-09-11T10:31:54.433Z,2.30
2023-09-11T10:34:25.006Z,3.72
2023-09-11T10:37:00.077Z,3.42
2023-09-11T10:39:30.857Z,5.10
2023-09-11T10:41:59.534Z,3.58
2023-09-11T10:44:30.093Z,2.40
2023-09-11T10:47:05.175Z,3.85
2023-09-11T10:49:39.348Z,5.30
2023-09-11T10:52:10.336Z,4.55
2023-09-11T10:54:42.221Z,4.68
2023-09-11T10:57:10.770Z,3.40
2023-09-11T10:59:39.317Z,2.63
2023-09-11T11:02:08.116Z,3.35
2023-09-11T11:04:37.374Z,3.40
2023-09-11T11:07:06.220Z,2.92
2023-09-11T11:09:37.288Z,3.42
2023-09-11T11:12:10.977Z,4.45
2023-09-11T11:14:39.664Z,5.43
2023-09-11T11:17:11.323Z,3.22
2023-09-11T11:19:41.711Z,3.53
2023-09-11T11:22:11.190Z,3.58
2023-09-11T11:24:55.677Z,3.10
2023-09-11T11:27:25.665Z,2.78
2023-09-11T11:29:55.284Z,5.63
2023-09-11T11:32:24.431Z,2.78
2023-09-11T11:34:53.041Z,2.33
2023-09-11T11:37:22.877Z,3.83
2023-09-11T11:39:52.205Z,4.70
2023-09-11T11:42:22.117Z,3.72
2023-09-11T11:44:52.821Z,2.95
2023-09-11T11:47:21.621Z,4.70
2023-09-11T11:49:51.088Z,1.85
2023-09-11T11:52:24.249Z,3.22
2023-09-11T11:54:52.710Z,5.05
2023-09-11T11:57:22.770Z,3.53
2023-09-11T11:59:53.208Z,2.90
2023-09-11T12:02:23.319Z,3.28
2023-09-11T12:04:55.976Z,2.45
2023-09-11T12:07:25.340Z,2.83
2023-09-11T12:09:53.851Z,2.60
2023-09-11T12:12:22.566Z,2.22
2023-09-11T12:14:57.800Z,2.97
2023-09-11T12:17:26.490Z,3.58
2023-09-11T12:20:15.080Z,3.50
2023-09-11T12:22:45.363Z,2.28
2023-09-11T12:25:14.438Z,4.40
2023-09-11T12:27:45.424Z,2.95
2023-09-11T12:30:16.672Z,2.47
2023-09-11T12:32:47.426Z,2.22
2023-09-11T12:35:15.905Z,3.75
2023-09-11T12:37:44.525Z,2.88
2023-09-11T12:40:13.470Z,3.10
2023-09-11T12:42:43.161Z,2.28
2023-09-11T12:45:12.350Z,2.28
2023-09-11T12:47:42.793Z,2.30
2023-09-11T12:50:11.862Z,3.75
2023-09-11T12:52:40.589Z,4.20
2023-09-11T12:55:09.375Z,3.17
2023-09-11T12:57:37.918Z,4.53
2023-09-11T13:00:07.722Z,2.72
2023-09-11T13:02:36.423Z,3.35
2023-09-11T13:05:09.981Z,2.38
2023-09-11T13:07:38.592Z,2.17
2023-09-11T13:10:08.666Z,3.13
2023-09-11T13:12:37.411Z,3.40
2023-09-11T13:15:08.599Z,4.80
2023-09-11T13:17:38.674Z,2.55
2023-09-11T13:20:10.544Z,2.60
2023-09-11T13:22:39.370Z,2.40
2023-09-11T13:25:08.645Z,3.90
2023-09-11T13:27:37.849Z,2.50
2023-09-11T13:30:08.621Z,2.83
2023-09-11T13:32:38.985Z,3.97
2023-09-11T13:35:10.673Z,2.75
2023-09-11T13:37:40.065Z,2.50
2023-09-11T13:40:09.398Z,2.70
2023-09-11T13:42:40.065Z,4.20
2023-09-11T13:45:11.309Z,2.42
2023-09-11T13:47:40.724Z,4.70
2023-09-11T13:50:11.902Z,3.63
2023-09-11T13:52:40.727Z,2.92
2023-09-11T13:55:10.292Z,3.03
2023-09-11T13:57:38.785Z,4.50
2023-09-11T14:00:09.005Z,2.90
2023-09-11T14:02:43.217Z,3.95
2023-09-11T14:05:13.400Z,2.65
2023-09-11T14:07:41.797Z,3.30
2023-09-11T14:10:11.245Z,2.92
2023-09-11T14:12:39.648Z,3.45
2023-09-11T14:15:10.025Z,4.45
2023-09-11T14:17:38.484Z,2.83
2023-09-11T14:20:11.770Z,3.53
2023-09-11T14:22:43.437Z,3.20
2023-09-11T14:25:12.381Z,2.85
2023-09-11T14:27:40.800Z,2.67
2023-09-11T14:30:11.439Z,3.17
2023-09-11T14:32:39.894Z,3.83
2023-09-11T14:35:09.726Z,3.35
2023-09-11T14:37:38.414Z,3.28
2023-09-11T14:40:11.656Z,3.05
2023-09-11T14:42:40.176Z,2.63
2023-09-11T14:45:10.264Z,3.00
2023-09-11T14:47:38.919Z,2.53
2023-09-11T14:50:10.888Z,3.30
2023-09-11T14:52:39.771Z,3.95
2023-09-11T14:55:10.775Z,2.83
2023-09-11T14:57:39.224Z,2.60
2023-09-11T15:00:09.662Z,2.75
2023-09-11T15:02:38.387Z,2.78
2023-09-11T15:05:07.707Z,2.50
2023-09-11T15:07:36.167Z,2.60
2023-09-11T15:10:05.377Z,2.65
2023-09-11T15:12:35.584Z,2.95
2023-09-11T15:15:04.453Z,2.40
2023-09-11T15:17:33.006Z,2.70
2023-09-11T15:20:01.574Z,2.45
2023-09-11T15:22:30.111Z,2.85
2023-09-11T15:24:59.729Z,2.25
2023-09-11T15:27:28.159Z,3.30
2023-09-11T15:29:58.630Z,2.88
2023-09-11T15:32:27.292Z,2.15
2023-09-11T15:34:55.808Z,2.85
2023-09-11T15:37:25.182Z,2.17
2023-09-11T15:39:53.582Z,2.00
2023-09-11T15:42:22.018Z,2.58
2023-09-11T15:44:51.523Z,2.35
2023-09-11T15:47:21.820Z,2.00
2023-09-11T15:49:50.520Z,2.22
2023-09-11T15:52:18.874Z,2.20
2023-09-11T15:54:47.299Z,2.10
2023-09-11T15:57:15.964Z,2.05
2023-09-11T15:59:44.826Z,2.25
2023-09-11T16:02:13.268Z,2.08
2023-09-11T16:04:43.409Z,2.10
2023-09-11T16:07:12.191Z,1.98
2023-09-11T16:09:40.851Z,2.40
2023-09-11T16:12:09.563Z,2.38
2023-09-11T16:14:38.201Z,2.22
2023-09-11T16:17:06.780Z,2.08
2023-09-11T16:19:35.311Z,2.13
2023-09-11T16:22:05.439Z,2.25
2023-09-11T16:24:33.848Z,2.17
2023-09-11T16:27:02.611Z,2.80
2023-09-11T16:29:31.011Z,3.88
2023-09-11T16:31:59.485Z,4.95
2023-09-11T16:34:28.015Z,3.35
2023-09-11T16:36:56.468Z,5.65
2023-09-11T16:39:26.251Z,3.25
2023-09-11T16:41:54.787Z,5.32
2023-09-11T16:44:23.654Z,3.22
2023-09-11T16:46:52.294Z,3.17
2023-09-11T16:49:24.514Z,4.03
2023-09-11T16:51:52.918Z,3.22
2023-09-11T16:54:21.372Z,3.47
2023-09-11T16:56:51.528Z,2.85
2023-09-11T16:59:20.123Z,3.33
2023-09-11T17:01:48.552Z,3.28
2023-09-11T17:04:16.965Z,2.85
2023-09-11T17:06:47.543Z,3.63
2023-09-11T17:09:16.993Z,4.50
2023-09-11T17:11:45.550Z,3.72
2023-09-11T17:14:15.635Z,3.22
2023-09-11T17:16:44.187Z,3.22
2023-09-11T17:19:12.822Z,2.83
2023-09-11T17:21:41.714Z,3.38
2023-09-11T17:24:10.809Z,2.80
2023-09-11T17:26:39.828Z,3.03
2023-09-11T17:29:08.214Z,2.95
2023-09-11T17:31:38.092Z,2.83
2023-09-11T17:34:06.659Z,3.45
2023-09-11T17:36:35.341Z,3.10
2023-09-11T17:39:04.334Z,4.30
2023-09-11T17:41:32.776Z,3.22
2023-09-11T17:44:01.382Z,3.25
2023-09-11T17:46:29.834Z,3.40
2023-09-11T17:48:59.705Z,4.45
2023-09-11T17:51:28.119Z,3.03
2023-09-11T17:53:56.869Z,4.65
2023-09-11T17:56:25.358Z,3.63
2023-09-11T17:58:53.885Z,3.20
2023-09-11T18:01:22.339Z,3.72
2023-09-11T18:03:57.423Z,3.55
2023-09-11T18:06:28.792Z,3.15
2023-09-11T18:08:58.885Z,3.83
2023-09-11T18:11:27.476Z,3.22
2023-09-11T18:13:55.934Z,3.00
2023-09-11T18:16:24.465Z,3.00
2023-09-11T18:18:53.129Z,3.08
2023-09-11T18:21:21.726Z,2.72
2023-09-11T18:23:51.558Z,3.42
2023-09-11T18:26:20.052Z,2.80
2023-09-11T18:28:48.520Z,2.88
2023-09-11T18:31:16.909Z,3.28
2023-09-11T18:33:46.591Z,3.13
2023-09-11T18:36:16.593Z,3.38
2023-09-11T18:38:45.143Z,3.20
2023-09-11T18:41:15.011Z,3.92
2023-09-11T18:43:43.468Z,3.33
2023-09-11T18:46:12.690Z,4.20
2023-09-11T18:48:42.931Z,3.65
2023-09-11T18:51:12.506Z,2.88
2023-09-11T18:53:41.015Z,4.28
2023-09-11T18:56:09.646Z,3.00
2023-09-11T18:58:39.773Z,2.80
2023-09-11T19:01:08.794Z,2.63
2023-09-11T19:03:37.493Z,3.15
2023-09-11T19:06:06.475Z,2.72
2023-09-11T19:08:35.242Z,3.08
2023-09-11T19:11:03.720Z,3.17
2023-09-11T19:13:32.606Z,4.30
2023-09-11T19:16:02.661Z,3.35
2023-09-11T19:18:37.916Z,3.05
2023-09-11T19:21:07.348Z,2.90
2023-09-11T19:23:36.499Z,2.65
2023-09-11T19:26:09.622Z,3.30
2023-09-11T19:28:40.237Z,3.20
2023-09-11T19:31:10.600Z,3.28
2023-09-11T19:33:39.326Z,3.45
2023-09-11T19:36:08.205Z,3.15
2023-09-11T19:38:36.730Z,5.40
2023-09-11T19:41:07.407Z,3.05
2023-09-11T19:43:36.184Z,2.83
2023-09-11T19:46:04.935Z,4.35
2023-09-11T19:48:36.617Z,3.10
2023-09-11T19:51:05.432Z,2.67
2023-09-11T19:53:33.868Z,3.33
2023-09-11T19:56:02.563Z,4.28
2023-09-11T19:58:31.132Z,3.78
2023-09-11T20:01:02.783Z,3.75
2023-09-11T20:03:31.311Z,3.35
2023-09-11T20:06:01.198Z,3.20
2023-09-11T20:08:29.726Z,5.57
2023-09-11T20:10:58.350Z,4.78
2023-09-11T20:13:30.153Z,3.58
2023-09-11T20:15:58.850Z,3.42
2023-09-11T20:18:27.228Z,3.15
2023-09-11T20:20:55.846Z,2.75
2023-09-11T20:23:25.825Z,2.95
2023-09-11T20:25:54.373Z,2.92
2023-09-11T20:28:22.936Z,2.92
2023-09-11T20:30:51.483Z,3.00
2023-09-11T20:33:20.015Z,2.55
2023-09-11T20:35:48.564Z,3.10
2023-09-11T20:38:21.393Z,2.60
2023-09-11T20:40:51.437Z,2.90
2023-09-11T20:43:19.811Z,3.40
2023-09-11T20:45:48.287Z,3.03
2023-09-11T20:48:16.734Z,2.70
2023-09-11T20:50:45.234Z,3.20
2023-09-11T20:53:13.778Z,3.38
2023-09-11T20:55:42.290Z,3.40
2023-09-11T20:58:12.564Z,5.32
2023-09-11T21:00:41.640Z,3.88
2023-09-11T21:03:10.143Z,4.93
2023-09-11T21:05:38.921Z,4.75
2023-09-11T21:08:07.534Z,4.68
2023-09-11T21:10:36.118Z,4.22
2023-09-11T21:13:05.124Z,4.07
2023-09-11T21:15:34.911Z,4.53
2023-09-11T21:18:03.536Z,4.47
2023-09-11T21:20:31.959Z,4.53
2023-09-11T21:23:02.424Z,4.22
2023-09-11T21:25:30.873Z,5.18
2023-09-11T21:28:00.156Z,6.20
2023-09-11T21:30:28.891Z,3.55
2023-09-11T21:32:58.749Z,3.92
2023-09-11T21:35:27.266Z,4.28
2023-09-11T21:37:55.748Z,4.10
2023-09-11T21:40:24.418Z,4.07
2023-09-11T21:42:52.776Z,3.80
2023-09-11T21:45:21.260Z,3.53
2023-09-11T21:47:49.714Z,3.75
2023-09-11T21:50:19.502Z,4.93
2023-09-11T21:52:48.046Z,3.53
2023-09-11T21:55:16.634Z,3.33
2023-09-11T21:57:45.006Z,3.42
2023-09-11T22:00:15.254Z,2.90
2023-09-11T22:02:43.914Z,2.78
2023-09-11T22:05:13.684Z,2.20
2023-09-11T22:07:43.866Z,2.13
2023-09-11T22:10:12.607Z,2.15
2023-09-11T22:12:41.170Z,2.60
2023-09-11T22:15:10.837Z,2.78
2023-09-11T22:17:39.436Z,2.03
2023-09-11T22:20:09.830Z,2.08
2023-09-11T22:22:38.449Z,2.25
2023-09-11T22:25:09.608Z,2.47
2023-09-11T22:27:38.105Z,2.28
2023-09-11T22:30:08.669Z,1.77
2023-09-11T22:32:53.182Z,1.92
2023-09-11T22:35:23.701Z,2.90
2023-09-11T22:37:52.669Z,2.35
2023-09-11T22:40:22.739Z,1.48
2023-09-11T22:42:51.137Z,1.48
2023-09-11T22:45:19.756Z,1.70
2023-09-11T22:53:02.534Z,1.38
2023-09-11T23:00:12.650Z,1.30
2023-09-11T23:02:41.744Z,1.20
2023-09-11T23:09:39.600Z,0.80
2023-09-11T23:12:08.910Z,1.00
2023-09-11T23:14:37.460Z,1.35
2023-09-11T23:17:07.988Z,1.00
2023-09-11T23:19:36.380Z,0.95
2023-09-11T23:22:05.157Z,1.65
2023-09-11T23:24:33.791Z,1.50
2023-09-11T23:27:02.671Z,1.30
2023-09-11T23:29:31.106Z,1.15
2023-09-11T23:31:59.568Z,1.85
2023-09-11T23:34:29.394Z,1.02
2023-09-11T23:36:57.879Z,1.38
2023-09-11T23:39:26.333Z,0.80
2023-09-11T23:41:54.733Z,1.08
2023-09-11T23:44:23.377Z,1.23
2023-09-11T23:46:51.778Z,1.10
2023-09-11T23:49:20.341Z,0.90
2023-09-11T23:51:50.166Z,1.25
2023-09-11T23:54:18.560Z,1.95
2023-09-11T23:56:46.990Z,0.80
2023-09-11T23:59:16.174Z,1.20
